createdAt,value
2023-01-06T00:00:44.370Z,14.63
2023-01-06T00:03:10.977Z,13.55
2023-01-06T00:05:37.693Z,11.60
2023-01-06T00:08:04.351Z,11.27
2023-01-06T00:10:30.985Z,11.05
2023-01-06T00:12:57.646Z,8.60
2023-01-06T00:15:24.251Z,10.88
2023-01-06T00:17:50.971Z,8.98
2023-01-06T00:20:17.680Z,5.50
2023-01-06T00:22:44.488Z,9.13
2023-01-06T00:25:11.914Z,7.07
2023-01-06T00:27:39.707Z,8.10
2023-01-06T00:30:07.839Z,10.45
2023-01-06T00:32:35.289Z,8.77
2023-01-06T00:35:02.213Z,7.60
2023-01-06T00:37:29.096Z,6.70
2023-01-06T00:39:55.731Z,7.95
2023-01-06T00:42:22.740Z,6.70
2023-01-06T00:44:50.055Z,7.85
2023-01-06T00:47:16.961Z,6.95
2023-01-06T00:49:43.981Z,8.40
2023-01-06T00:52:11.429Z,7.50
2023-01-06T00:54:38.110Z,8.27
2023-01-06T00:57:07.119Z,12.98
2023-01-06T00:59:34.181Z,10.02
2023-01-06T01:02:01.422Z,11.30
2023-01-06T01:04:29.202Z,10.73
2023-01-06T01:06:56.140Z,10.98
2023-01-06T01:09:28.810Z,7.93
2023-01-06T01:12:14.631Z,8.73
2023-01-06T01:14:47.289Z,10.00
2023-01-06T01:17:26.211Z,9.27
2023-01-06T01:19:55.408Z,8.13
2023-01-06T01:22:24.063Z,8.02
2023-01-06T01:24:50.744Z,8.20
2023-01-06T01:27:17.497Z,7.00
2023-01-06T01:29:44.160Z,8.90
2023-01-06T01:32:10.940Z,10.63
2023-01-06T01:34:38.121Z,10.77
2023-01-06T01:37:04.699Z,8.73
2023-01-06T01:39:31.431Z,9.10
2023-01-06T01:41:59.497Z,7.65
2023-01-06T01:45:05.659Z,8.98
2023-01-06T01:47:49.221Z,8.40
2023-01-06T01:50:25.009Z,6.68
2023-01-06T01:52:54.721Z,8.10
2023-01-06T01:55:22.232Z,7.78
2023-01-06T01:58:13.792Z,10.00
2023-01-06T02:00:43.148Z,7.72
2023-01-06T02:03:11.300Z,5.72
2023-01-06T02:05:42.838Z,8.97
2023-01-06T02:08:47.720Z,8.00
2023-01-06T02:11:14.573Z,5.63
2023-01-06T02:13:44.341Z,7.07
2023-01-06T02:16:27.100Z,7.32
2023-01-06T02:19:12.255Z,8.03
2023-01-06T02:22:04.169Z,4.70
2023-01-06T02:24:51.643Z,7.55
2023-01-06T02:27:21.285Z,7.88
2023-01-06T02:30:10.040Z,11.50
2023-01-06T02:32:51.951Z,8.47
2023-01-06T02:35:37.045Z,8.45
2023-01-06T02:38:24.231Z,7.43
2023-01-06T02:41:08.059Z,7.90
2023-01-06T02:43:44.996Z,6.45
2023-01-06T02:46:25.934Z,9.17
2023-01-06T02:49:04.499Z,4.63
2023-01-06T02:52:03.809Z,7.18
2023-01-06T02:55:07.401Z,6.05
2023-01-06T02:58:14.215Z,6.03
2023-01-06T03:00:54.290Z,7.53
2023-01-06T03:03:23.270Z,7.63
2023-01-06T03:05:54.036Z,5.68
2023-01-06T03:08:27.109Z,5.30
2023-01-06T03:10:56.039Z,8.25
2023-01-06T03:13:46.133Z,7.53
2023-01-06T03:16:13.649Z,5.88
2023-01-06T03:18:42.812Z,7.22
2023-01-06T03:21:14.378Z,5.30
2023-01-06T03:23:42.394Z,4.13
2023-01-06T03:26:10.030Z,7.03
2023-01-06T03:28:37.693Z,8.93
2023-01-06T03:31:11.228Z,6.10
2023-01-06T03:34:00.401Z,8.35
2023-01-06T03:36:57.262Z,6.18
2023-01-06T03:39:44.069Z,4.23
2023-01-06T03:42:44.801Z,8.85
2023-01-06T03:45:22.503Z,4.47
2023-01-06T03:48:19.663Z,6.38
2023-01-06T03:50:54.786Z,4.18
2023-01-06T03:53:48.076Z,5.23
2023-01-06T03:56:39.255Z,9.02
2023-01-06T03:59:12.176Z,4.47
2023-01-06T04:01:43.521Z,4.90
2023-01-06T04:04:10.865Z,5.38
2023-01-06T04:06:37.804Z,5.23
2023-01-06T04:09:04.407Z,10.73
2023-01-06T04:11:57.119Z,5.32
2023-01-06T04:14:23.781Z,6.55
2023-01-06T04:16:50.454Z,4.55
2023-01-06T04:19:17.204Z,4.40
2023-01-06T04:21:43.802Z,5.72
2023-01-06T04:24:10.489Z,5.95
2023-01-06T04:26:37.127Z,7.93
2023-01-06T04:29:03.955Z,5.70
2023-01-06T04:31:30.607Z,5.27
2023-01-06T04:33:57.316Z,5.90
2023-01-06T04:36:24.077Z,4.93
2023-01-06T04:38:50.699Z,2.90
2023-01-06T04:41:17.434Z,7.85
2023-01-06T04:43:44.005Z,4.33
2023-01-06T04:46:11.326Z,7.35
2023-01-06T04:48:38.063Z,7.43
2023-01-06T04:51:06.886Z,4.53
2023-01-06T04:53:35.299Z,7.47
2023-01-06T04:56:06.853Z,5.33
2023-01-06T04:58:33.906Z,7.82
2023-01-06T05:01:05.872Z,4.97
2023-01-06T05:03:32.686Z,7.72
2023-01-06T05:06:04.106Z,8.82
2023-01-06T05:08:31.940Z,5.50
2023-01-06T05:11:04.690Z,4.75
2023-01-06T05:13:31.862Z,6.68
2023-01-06T05:15:58.479Z,5.40
2023-01-06T05:18:25.130Z,4.43
2023-01-06T05:20:53.299Z,7.40
2023-01-06T05:23:21.098Z,4.38
2023-01-06T05:25:51.356Z,5.45
2023-01-06T05:28:18.710Z,4.93
2023-01-06T05:30:45.420Z,6.82
2023-01-06T05:33:12.057Z,2.60
2023-01-06T05:35:38.700Z,5.45
2023-01-06T05:38:05.296Z,6.30
2023-01-06T05:40:31.953Z,4.35
2023-01-06T05:42:58.788Z,5.10
2023-01-06T05:45:25.703Z,5.70
2023-01-06T05:47:52.565Z,2.83
2023-01-06T05:50:19.468Z,5.40
2023-01-06T05:52:46.093Z,4.35
2023-01-06T05:55:12.770Z,5.05
2023-01-06T05:57:39.389Z,4.40
2023-01-06T06:00:08.208Z,5.28
2023-01-06T06:02:34.806Z,4.05
2023-01-06T06:05:01.392Z,4.93
2023-01-06T06:07:27.981Z,7.22
2023-01-06T06:09:54.551Z,4.63
2023-01-06T06:12:21.125Z,4.60
2023-01-06T06:14:47.695Z,5.32
2023-01-06T06:17:14.265Z,4.97
2023-01-06T06:19:40.944Z,4.90
2023-01-06T06:22:10.453Z,5.33
2023-01-06T06:24:37.422Z,6.75
2023-01-06T06:27:04.717Z,8.45
2023-01-06T06:29:31.351Z,4.93
2023-01-06T06:31:57.998Z,4.95
2023-01-06T06:34:24.634Z,4.80
2023-01-06T06:36:51.409Z,3.40
2023-01-06T06:39:18.345Z,3.40
2023-01-06T06:41:44.964Z,6.60
2023-01-06T06:44:11.666Z,3.15
2023-01-06T06:46:38.307Z,5.23
2023-01-06T06:49:05.047Z,5.50
2023-01-06T06:51:32.135Z,4.50
2023-01-06T06:53:58.734Z,3.65
2023-01-06T06:56:25.435Z,4.57
2023-01-06T06:58:52.168Z,10.30
2023-01-06T07:01:21.169Z,3.53
2023-01-06T07:03:48.646Z,4.28
2023-01-06T07:06:19.803Z,5.15
2023-01-06T07:08:47.179Z,4.68
2023-01-06T07:11:14.099Z,4.73
2023-01-06T07:13:40.786Z,4.03
2023-01-06T07:16:07.703Z,5.90
2023-01-06T07:18:34.366Z,3.45
2023-01-06T07:21:01.236Z,4.43
2023-01-06T07:23:27.948Z,5.00
2023-01-06T07:25:56.902Z,7.82
2023-01-06T07:28:24.337Z,4.40
2023-01-06T07:30:51.283Z,3.80
2023-01-06T07:33:19.071Z,4.00
2023-01-06T07:35:46.045Z,4.63
2023-01-06T07:38:12.724Z,4.70
2023-01-06T07:40:39.370Z,3.83
2023-01-06T07:43:07.145Z,3.83
2023-01-06T07:45:34.402Z,4.30
2023-01-06T07:48:01.305Z,5.33
2023-01-06T07:50:28.653Z,3.65
2023-01-06T07:52:58.256Z,5.03
2023-01-06T07:55:25.412Z,3.72
2023-01-06T07:57:52.570Z,4.00
2023-01-06T08:00:19.477Z,6.20
2023-01-06T08:02:46.134Z,5.97
2023-01-06T08:05:13.021Z,4.45
2023-01-06T08:07:39.656Z,5.32
2023-01-06T08:10:07.174Z,6.32
2023-01-06T08:12:33.881Z,7.47
2023-01-06T08:15:00.499Z,3.47
2023-01-06T08:17:27.084Z,7.95
2023-01-06T08:19:53.717Z,7.57
2023-01-06T08:22:20.445Z,8.48
2023-01-06T08:24:47.085Z,8.50
2023-01-06T08:27:13.767Z,9.48
2023-01-06T08:32:25.772Z,5.20
2023-01-06T08:34:52.494Z,8.10
2023-01-06T08:37:22.003Z,8.13
2023-01-06T08:39:48.606Z,10.00
2023-01-06T08:42:15.278Z,9.55
2023-01-06T08:44:41.951Z,9.02
2023-01-06T08:47:08.546Z,10.88
2023-01-06T08:49:35.174Z,9.30
2023-01-06T08:52:01.835Z,10.10
2023-01-06T08:54:30.002Z,10.43
2023-01-06T08:56:57.070Z,11.98
2023-01-06T08:59:23.804Z,8.75
2023-01-06T09:01:50.505Z,15.83
2023-01-06T09:04:17.156Z,13.93
2023-01-06T09:06:44.310Z,14.07
2023-01-06T09:09:13.896Z,12.35
2023-01-06T09:11:42.377Z,14.65
2023-01-06T09:14:10.754Z,11.33
2023-01-06T09:16:37.399Z,18.23
2023-01-06T09:19:04.066Z,11.40
2023-01-06T09:21:30.787Z,10.05
2023-01-06T09:23:57.643Z,9.98
2023-01-06T09:26:24.290Z,14.77
2023-01-06T09:28:50.862Z,12.82
2023-01-06T09:31:18.344Z,12.20
2023-01-06T09:33:45.275Z,12.95
2023-01-06T09:36:11.899Z,9.95
2023-01-06T09:38:38.574Z,11.70
2023-01-06T09:41:36.919Z,11.52
2023-01-06T09:44:11.400Z,7.22
2023-01-06T09:46:41.970Z,9.68
2023-01-06T09:49:30.053Z,10.32
2023-01-06T09:52:03.261Z,12.10
2023-01-06T09:55:05.214Z,12.20
2023-01-06T09:57:39.330Z,10.32
2023-01-06T10:00:23.994Z,9.93
2023-01-06T10:02:50.715Z,10.00
2023-01-06T10:05:46.941Z,8.60
2023-01-06T10:08:44.298Z,10.65
2023-01-06T10:11:21.397Z,9.40
2023-01-06T10:14:04.848Z,12.05
2023-01-06T10:17:06.912Z,10.63
2023-01-06T10:20:02.668Z,11.80
2023-01-06T10:22:52.815Z,9.52
2023-01-06T10:25:41.125Z,9.70
2023-01-06T10:28:25.146Z,11.93
2023-01-06T10:30:55.291Z,14.05
2023-01-06T10:33:27.802Z,8.67
2023-01-06T10:35:56.029Z,11.48
2023-01-06T10:38:29.704Z,11.07
2023-01-06T10:41:20.705Z,12.85
2023-01-06T10:43:47.312Z,12.73
2023-01-06T10:46:15.872Z,8.57
2023-01-06T10:48:43.208Z,8.38
2023-01-06T10:51:32.768Z,10.10
2023-01-06T10:54:02.271Z,11.85
2023-01-06T10:56:30.585Z,15.00
2023-01-06T10:59:07.293Z,7.93
2023-01-06T11:01:34.932Z,8.32
2023-01-06T11:04:12.878Z,11.00
2023-01-06T11:06:44.854Z,10.63
2023-01-06T11:09:29.492Z,8.50
2023-01-06T11:11:59.093Z,9.17
2023-01-06T11:14:30.516Z,8.98
2023-01-06T11:17:01.627Z,6.00
2023-01-06T11:19:43.475Z,6.43
2023-01-06T11:22:35.908Z,11.05
2023-01-06T11:25:21.691Z,9.60
2023-01-06T11:28:09.183Z,7.15
2023-01-06T11:30:43.565Z,5.60
2023-01-06T11:33:19.015Z,10.85
2023-01-06T11:35:46.839Z,7.65
2023-01-06T11:38:15.376Z,10.63
2023-01-06T11:40:43.843Z,8.40
2023-01-06T11:43:16.086Z,7.88
2023-01-06T11:45:49.756Z,10.88
2023-01-06T11:48:20.612Z,5.03
2023-01-06T11:51:11.127Z,10.23
2023-01-06T11:53:54.132Z,9.15
2023-01-06T11:56:20.837Z,8.40
2023-01-06T11:59:08.796Z,5.53
2023-01-06T12:01:57.289Z,7.80
2023-01-06T12:04:38.714Z,9.77
2023-01-06T12:07:17.953Z,11.00
2023-01-06T12:09:49.264Z,9.57
2023-01-06T12:12:21.578Z,9.02
2023-01-06T12:14:48.326Z,10.52
2023-01-06T12:17:33.954Z,9.77
2023-01-06T12:20:06.698Z,9.63
2023-01-06T12:22:53.451Z,9.65
2023-01-06T12:25:52.285Z,7.60
2023-01-06T12:28:25.337Z,7.88
2023-01-06T12:30:55.460Z,6.47
2023-01-06T12:33:40.448Z,8.95
2023-01-06T12:36:24.692Z,6.97
2023-01-06T12:38:56.898Z,13.63
2023-01-06T12:41:41.490Z,8.98
2023-01-06T12:44:29.955Z,7.03
2023-01-06T12:47:05.376Z,8.07
2023-01-06T12:49:39.828Z,9.10
2023-01-06T12:52:22.689Z,8.85
2023-01-06T12:54:55.962Z,5.93
2023-01-06T12:57:40.528Z,11.20
2023-01-06T13:00:44.098Z,8.75
2023-01-06T13:03:47.244Z,7.18
2023-01-06T13:06:36.388Z,7.25
2023-01-06T13:09:18.053Z,8.93
2023-01-06T13:11:47.760Z,6.53
2023-01-06T13:14:35.716Z,8.82
2023-01-06T13:17:09.260Z,5.70
2023-01-06T13:19:52.612Z,6.95
2023-01-06T13:22:56.275Z,7.53
2023-01-06T13:25:41.771Z,6.63
2023-01-06T13:28:27.299Z,6.88
2023-01-06T13:30:56.744Z,8.73
2023-01-06T13:34:01.187Z,7.68
2023-01-06T13:36:56.396Z,7.43
2023-01-06T13:39:32.723Z,9.27
2023-01-06T13:42:02.367Z,7.18
2023-01-06T13:44:32.132Z,10.90
2023-01-06T13:47:07.617Z,9.23
2023-01-06T13:49:37.719Z,9.90
2023-01-06T13:52:05.380Z,6.43
2023-01-06T13:54:59.051Z,7.03
2023-01-06T13:57:38.240Z,11.95
2023-01-06T14:00:04.790Z,9.40
2023-01-06T14:02:34.459Z,8.63
2023-01-06T14:05:24.915Z,9.17
2023-01-06T14:07:55.704Z,7.05
2023-01-06T14:10:38.635Z,7.07
2023-01-06T14:13:17.857Z,8.43
2023-01-06T14:16:06.336Z,7.60
2023-01-06T14:18:52.075Z,8.27
2023-01-06T14:21:31.667Z,6.93
2023-01-06T14:27:59.341Z,8.02
2023-01-06T14:30:32.032Z,4.95
2023-01-06T14:36:32.435Z,4.47
2023-01-06T14:39:23.964Z,3.88
2023-01-06T14:42:01.142Z,5.13
2023-01-06T14:48:24.075Z,6.07
2023-01-06T14:51:29.895Z,7.20
2023-01-06T14:54:30.756Z,3.08
2023-01-06T14:57:31.346Z,6.90
2023-01-06T15:04:09.076Z,3.50
2023-01-06T15:07:30.091Z,4.07
2023-01-06T15:10:40.411Z,4.97
2023-01-06T15:13:26.493Z,5.63
2023-01-06T15:16:04.383Z,4.15
2023-01-06T15:18:49.516Z,5.43
2023-01-06T15:31:57.335Z,5.28
2023-01-06T15:35:09.940Z,5.40
2023-01-06T15:37:37.869Z,4.78
2023-01-06T15:40:35.762Z,6.88
2023-01-06T15:43:08.856Z,11.55
2023-01-06T15:45:42.185Z,4.85
2023-01-06T15:48:25.253Z,5.40
2023-01-06T15:50:56.358Z,4.82
2023-01-06T15:56:46.999Z,6.05
2023-01-06T15:59:22.797Z,7.57
2023-01-06T16:08:37.623Z,7.90
2023-01-06T16:11:48.597Z,6.10
2023-01-06T16:14:46.506Z,6.75
2023-01-06T16:17:46.014Z,5.17
2023-01-06T16:20:27.990Z,6.45
2023-01-06T16:22:56.209Z,8.77
2023-01-06T16:25:32.916Z,11.18
2023-01-06T16:28:12.113Z,5.68
2023-01-06T16:30:40.530Z,6.07
2023-01-06T16:33:42.799Z,9.45
2023-01-06T16:36:17.049Z,8.60
2023-01-06T16:41:35.660Z,16.67
2023-01-06T16:44:05.420Z,8.47
2023-01-06T16:46:35.426Z,8.73
2023-01-06T16:49:17.552Z,12.43
2023-01-06T16:52:01.770Z,10.38
2023-01-06T16:57:28.293Z,9.53
2023-01-06T16:59:54.942Z,14.18
2023-01-06T17:02:22.977Z,13.40
2023-01-06T17:05:06.483Z,12.93
2023-01-06T17:07:51.895Z,8.73
2023-01-06T17:10:38.983Z,15.83
2023-01-06T17:13:42.416Z,9.55
2023-01-06T17:17:04.131Z,9.07
2023-01-06T17:19:35.314Z,11.93
2023-01-06T17:22:26.097Z,11.75
2023-01-06T17:24:53.130Z,15.57
2023-01-06T17:27:32.012Z,15.38
2023-01-06T17:30:03.237Z,7.65
2023-01-06T17:32:39.308Z,10.52
2023-01-06T17:35:49.053Z,10.88
2023-01-06T17:41:31.566Z,10.15
2023-01-06T17:44:00.313Z,6.13
2023-01-06T17:46:38.245Z,6.63
2023-01-06T17:49:50.545Z,8.63
2023-01-06T17:52:44.914Z,9.73
2023-01-06T17:59:03.188Z,8.10
2023-01-06T18:01:39.366Z,11.40
2023-01-06T18:04:12.322Z,7.72
2023-01-06T18:06:45.111Z,13.07
2023-01-06T18:09:21.241Z,11.55
2023-01-06T18:11:51.525Z,12.55
2023-01-06T18:14:20.290Z,13.43
2023-01-06T18:16:53.114Z,11.43
2023-01-06T18:19:33.063Z,9.60
2023-01-06T18:22:22.843Z,13.68
2023-01-06T18:25:01.013Z,8.80
2023-01-06T18:27:40.840Z,10.80
2023-01-06T18:30:17.776Z,10.93
2023-01-06T18:32:55.791Z,8.30
2023-01-06T18:35:47.621Z,9.05
2023-01-06T18:38:24.667Z,10.63
2023-01-06T18:40:53.509Z,9.10
2023-01-06T18:43:27.340Z,14.38
2023-01-06T18:46:06.030Z,9.13
2023-01-06T18:48:38.611Z,7.68
2023-01-06T18:51:29.572Z,10.68
2023-01-06T18:54:15.209Z,12.27
2023-01-06T18:56:44.884Z,9.10
2023-01-06T18:59:20.017Z,9.37
2023-01-06T19:01:57.352Z,12.40
2023-01-06T19:04:46.204Z,10.90
2023-01-06T19:07:30.674Z,13.43
2023-01-06T19:12:56.362Z,13.47
2023-01-06T19:15:24.961Z,11.38
2023-01-06T19:17:57.135Z,10.68
2023-01-06T19:20:29.313Z,17.40
2023-01-06T19:22:59.855Z,15.95
2023-01-06T19:25:43.421Z,12.40
2023-01-06T19:28:36.576Z,15.35
2023-01-06T19:31:06.134Z,14.40
2023-01-06T19:34:09.224Z,15.35
2023-01-06T19:36:57.343Z,14.25
2023-01-06T19:39:33.667Z,17.23
2023-01-06T19:42:17.399Z,21.35
2023-01-06T19:44:47.900Z,16.08
2023-01-06T19:47:30.769Z,15.77
2023-01-06T19:50:11.114Z,14.95
2023-01-06T19:52:41.883Z,17.13
2023-01-06T19:55:25.025Z,15.98
2023-01-06T19:58:01.506Z,19.98
2023-01-06T20:00:31.218Z,20.02
2023-01-06T20:03:01.623Z,18.38
2023-01-06T20:05:29.464Z,18.97
2023-01-06T20:07:56.123Z,23.23
2023-01-06T20:10:23.229Z,19.13
2023-01-06T20:12:50.031Z,19.95
2023-01-06T20:15:16.975Z,17.45
2023-01-06T20:17:43.613Z,18.83
2023-01-06T20:20:11.052Z,18.52
2023-01-06T20:22:37.830Z,18.05
2023-01-06T20:25:04.802Z,19.00
2023-01-06T20:27:31.409Z,16.70
2023-01-06T20:29:57.980Z,16.40
2023-01-06T20:32:24.625Z,19.55
2023-01-06T20:34:51.206Z,16.88
2023-01-06T20:37:17.890Z,18.17
2023-01-06T20:39:44.890Z,16.98
2023-01-06T20:42:13.350Z,21.20
2023-01-06T20:44:40.137Z,16.10
2023-01-06T20:47:06.942Z,16.55
2023-01-06T20:49:34.393Z,17.40
2023-01-06T20:52:01.054Z,15.00
2023-01-06T20:54:27.717Z,14.97
2023-01-06T20:56:54.349Z,16.20
2023-01-06T20:59:20.988Z,14.80
2023-01-06T21:01:47.711Z,15.60
2023-01-06T21:04:14.421Z,14.68
2023-01-06T21:06:40.992Z,14.63
2023-01-06T21:09:07.654Z,17.20
2023-01-06T21:11:34.230Z,16.10
2023-01-06T21:14:00.797Z,14.80
2023-01-06T21:16:27.484Z,14.57
2023-01-06T21:18:54.206Z,15.27
2023-01-06T21:21:20.950Z,14.77
2023-01-06T21:23:47.565Z,16.67
2023-01-06T21:26:14.185Z,13.95
2023-01-06T21:28:40.794Z,13.07
2023-01-06T21:31:07.527Z,14.90
2023-01-06T21:33:34.141Z,17.85
2023-01-06T21:36:00.703Z,15.27
2023-01-06T21:38:27.273Z,15.38
2023-01-06T21:41:13.916Z,15.52
2023-01-06T21:43:40.528Z,15.67
2023-01-06T21:46:07.183Z,15.50
2023-01-06T21:48:33.820Z,17.25
2023-01-06T21:51:00.516Z,18.40
2023-01-06T21:53:29.128Z,17.92
2023-01-06T21:55:55.722Z,16.10
2023-01-06T21:58:23.184Z,20.52
2023-01-06T22:00:50.062Z,17.40
2023-01-06T22:03:16.718Z,16.67
2023-01-06T22:05:43.984Z,16.02
2023-01-06T22:08:10.865Z,18.77
2023-01-06T22:10:40.848Z,18.13
2023-01-06T22:13:10.512Z,20.92
2023-01-06T22:15:37.913Z,19.63
2023-01-06T22:18:06.077Z,20.63
2023-01-06T22:20:33.096Z,20.23
2023-01-06T22:23:05.225Z,18.63
2023-01-06T22:25:31.818Z,20.50
2023-01-06T22:27:58.714Z,20.13
2023-01-06T22:30:26.781Z,20.40
2023-01-06T22:32:53.364Z,17.27
2023-01-06T22:35:20.031Z,20.52
2023-01-06T22:37:46.705Z,19.98
2023-01-06T22:40:14.850Z,16.52
2023-01-06T22:42:41.925Z,16.42
2023-01-06T22:45:09.325Z,15.83
2023-01-06T22:47:35.951Z,15.65
2023-01-06T22:50:02.655Z,17.92
2023-01-06T22:52:29.513Z,16.92
2023-01-06T22:54:56.145Z,19.67
2023-01-06T22:57:22.787Z,15.70
2023-01-06T22:59:49.467Z,16.55
2023-01-06T23:02:16.372Z,16.45
2023-01-06T23:04:43.195Z,16.70
2023-01-06T23:07:09.913Z,15.00
2023-01-06T23:09:36.689Z,14.40
2023-01-06T23:12:03.468Z,15.18
2023-01-06T23:14:30.168Z,18.65
2023-01-06T23:16:56.777Z,15.68
2023-01-06T23:19:23.707Z,14.18
2023-01-06T23:21:50.342Z,14.40
2023-01-06T23:24:17.149Z,15.68
2023-01-06T23:26:46.201Z,15.35
2023-01-06T23:29:13.414Z,14.80
2023-01-06T23:31:42.293Z,16.60
2023-01-06T23:34:14.855Z,15.97
2023-01-06T23:36:42.406Z,16.35
2023-01-06T23:39:12.291Z,18.88
2023-01-06T23:41:39.236Z,16.02
2023-01-06T23:44:06.351Z,14.65
2023-01-06T23:46:35.684Z,19.23
2023-01-06T23:49:03.015Z,16.42
2023-01-06T23:51:32.011Z,16.58
2023-01-06T23:54:00.217Z,18.20
2023-01-06T23:56:28.827Z,21.38
2023-01-06T23:58:58.244Z,15.10
